KBLM/BLM METAR and TAF weather

Enter ICAO airport designator
Station Type Date Time Source
KBLM METAR 2019/02/23 02:56 UTC NOAA

KBLM 230256Z AUTO 32005KT 10SM CLR 02/M04 A3045 RMK AO2 SLP317 T00221044 53008 FZRANO


Station Type Date Time Source
KBLM Decoded METAR 2019/02/23 02:56 UTC NOAA

Belmar-Farmingdale, NJ, United States (KBLM) 40-11N 074-08W
Feb 22, 2019 - 09:56 PM EST / 2019.02.23 0256 UTC
Wind: from the NW (320 degrees) at 6 MPH (5 KT):0
Visibility: 10 mile(s):0
Sky conditions: clear
Temperature: 36.0 F (2.2 C)
Dew Point: 24.1 F (-4.4 C)
Relative Humidity: 61%
Pressure (altimeter): 30.45 in. Hg (1031 hPa)
Pressure tendency: 0.02 inches (0.8 hPa) higher than three hours ago
ob: KBLM 230256Z AUTO 32005KT 10SM CLR 02/M04 A3045 RMK AO2 SLP317 T00221044 53008 FZRANO
cycle: 3

Station Type Date Time Source
KBLM TAF UTC NOAA

Error!


Example: see airport list